Time;durP1;ratioP1;P1;durP2;ratioP2;P2;SDS_P1;SDS_P2;PMS_P1;PMS_P2;Temp;Humidity;BMP_temperature;BMP_pressure;BME280_temperature;BME280_humidity;BME280_pressure;Samples;Min_cycle;Max_cycle;Signal;HPM_P1;HPM_P2
2021/10/23 00:08:40;;;;;;;1.80;1.70;;;;;;;5.25;69.65;99186.08;466071;1190;143162;-77
2021/10/23 00:18:46;;;;;;;2.60;1.60;;;;;;;5.05;69.88;99193.09;465623;1190;140712;-77
2021/10/23 00:28:52;;;;;;;1.90;1.40;;;;;;;4.87;70.17;99219.59;465888;1190;140977;-79
2021/10/23 00:38:58;;;;;;;1.50;1.20;;;;;;;4.75;69.83;99246.48;465011;1190;141443;-76
2021/10/23 00:49:04;;;;;;;3.30;0.80;;;;;;;4.71;69.64;99257.10;466084;1189;140776;-78
2021/10/23 00:59:10;;;;;;;1.80;0.80;;;;;;;4.75;69.58;99262.96;465744;1190;141560;-76
2021/10/23 01:09:16;;;;;;;1.30;1.20;;;;;;;4.67;69.13;99258.63;465259;1189;140783;-77
2021/10/23 01:19:23;;;;;;;2.30;1.70;;;;;;;4.35;69.48;99266.09;478008;1189;140459;-78
2021/10/23 01:29:29;;;;;;;2.90;1.20;;;;;;;4.46;69.75;99283.46;477156;1189;141710;-78
2021/10/23 01:39:36;;;;;;;2.30;0.90;;;;;;;4.72;69.44;99290.33;472628;1190;140512;-77
2021/10/23 01:49:44;;;;;;;3.90;1.70;;;;;;;4.82;68.85;99293.88;465515;1190;140503;-77
2021/10/23 01:59:48;;;;;;;;;;;;;;;4.88;68.72;99309.40;465729;1189;140733;-77
2021/10/23 02:09:54;;;;;;;3.40;1.10;;;;;;;4.90;68.80;99324.89;464630;1190;127841;-77
2021/10/23 02:20:00;;;;;;;3.50;1.00;;;;;;;4.89;68.93;99336.23;465860;1190;140723;-77
2021/10/23 02:30:08;;;;;;;1.00;0.90;;;;;;;4.82;69.02;99340.55;462641;1190;140811;-78
2021/10/23 02:40:15;;;;;;;3.00;1.40;;;;;;;4.74;69.17;99356.30;469567;1190;141607;-77
2021/10/23 02:50:21;;;;;;;3.20;1.30;;;;;;;4.70;69.34;99362.55;465270;1190;141746;-71
2021/10/23 03:00:27;;;;;;;4.00;1.50;;;;;;;4.74;69.24;99377.27;468161;1190;140254;-75
2021/10/23 03:10:33;;;;;;;2.80;1.10;;;;;;;4.73;69.44;99378.02;477778;1190;140693;-78
2021/10/23 03:20:39;;;;;;;4.90;1.90;;;;;;;4.75;69.55;99390.61;473510;1190;142012;-78
2021/10/23 03:30:45;;;;;;;1.80;1.20;;;;;;;4.81;69.49;99395.40;467395;1190;140019;-77
2021/10/23 03:40:51;;;;;;;5.80;1.70;;;;;;;4.84;69.52;99406.70;466167;1189;140463;-78
2021/10/23 03:50:57;;;;;;;2.70;1.80;;;;;;;4.89;69.42;99414.48;465502;1190;140385;-77
2021/10/23 04:01:03;;;;;;;3.80;1.50;;;;;;;4.91;69.53;99420.95;465819;1190;144807;-76
2021/10/23 04:11:09;;;;;;;9.90;3.50;;;;;;;4.95;69.59;99413.02;465467;1190;142654;-76
2021/10/23 04:21:15;;;;;;;6.30;2.30;;;;;;;4.95;69.44;99422.55;464837;1189;141505;-77
2021/10/23 04:31:21;;;;;;;4.40;1.50;;;;;;;4.97;69.54;99434.96;465387;1190;140426;-78
2021/10/23 04:41:27;;;;;;;8.80;3.10;;;;;;;4.97;69.59;99442.24;464806;1175;140925;-76
2021/10/23 04:51:33;;;;;;;5.20;2.90;;;;;;;4.98;69.56;99456.77;465448;1190;141815;-76
2021/10/23 05:01:39;;;;;;;7.10;3.00;;;;;;;4.90;69.53;99458.98;465435;1190;142439;-79
2021/10/23 05:11:45;;;;;;;9.80;3.00;;;;;;;4.86;69.66;99475.66;464813;1190;140674;-75
2021/10/23 05:21:51;;;;;;;6.50;3.20;;;;;;;4.83;69.80;99486.02;465748;1190;140637;-75
2021/10/23 05:31:57;;;;;;;5.70;3.60;;;;;;;4.80;69.95;99493.58;465686;1190;140937;-77
2021/10/23 05:42:03;;;;;;;3.80;3.20;;;;;;;4.75;69.82;99506.44;465523;1190;141095;-78
2021/10/23 05:52:08;;;;;;;4.60;2.90;;;;;;;4.67;70.20;99526.91;465889;1189;142214;-78
2021/10/23 06:02:24;;;;;;;10.90;3.00;;;;;;;4.70;70.33;99533.00;465562;1190;141409;-79
2021/10/23 06:12:32;;;;;;;6.10;2.70;;;;;;;4.79;70.16;99539.44;465756;1190;143180;-78
2021/10/23 06:22:37;;;;;;;6.10;3.10;;;;;;;4.82;70.39;99549.00;465678;1190;141974;-79
2021/10/23 06:32:49;;;;;;;15.00;4.10;;;;;;;4.96;70.31;99566.31;464825;1190;141487;-76
2021/10/23 06:42:54;;;;;;;8.80;3.30;;;;;;;5.13;70.32;99589.41;477790;1190;140571;-77
2021/10/23 06:53:00;;;;;;;7.20;2.90;;;;;;;5.20;69.87;99602.30;469004;1190;140054;-78
2021/10/23 07:03:06;;;;;;;5.70;2.30;;;;;;;5.29;69.66;99605.72;464692;1190;140951;-77
2021/10/23 07:13:12;;;;;;;7.70;3.30;;;;;;;5.46;69.51;99614.91;467219;1190;141864;-78
2021/10/23 07:23:18;;;;;;;9.90;3.70;;;;;;;5.51;69.49;99631.73;465639;1189;140689;-78
2021/10/23 07:33:24;;;;;;;5.40;3.00;;;;;;;5.53;69.41;99655.27;464163;1190;141636;-78
2021/10/23 07:43:30;;;;;;;6.90;3.40;;;;;;;5.54;69.21;99670.16;469937;1190;142178;-78
2021/10/23 07:53:37;;;;;;;4.70;3.40;;;;;;;5.57;69.14;99686.02;465686;1191;141441;-77
2021/10/23 08:03:43;;;;;;;6.40;3.20;;;;;;;5.74;69.19;99695.70;468623;1190;141105;-76
2021/10/23 08:13:49;;;;;;;8.80;2.60;;;;;;;5.94;68.69;99697.99;468589;1190;141530;-77
2021/10/23 08:23:55;;;;;;;5.90;2.60;;;;;;;6.01;68.40;99700.85;474826;1189;140250;-75
2021/10/23 08:34:02;;;;;;;8.30;2.50;;;;;;;6.12;68.06;99715.17;465507;1190;141398;-74
2021/10/23 08:44:08;;;;;;;12.90;4.20;;;;;;;6.17;68.02;99734.77;447861;1190;10003609;-69
2021/10/23 08:54:15;;;;;;;6.20;3.70;;;;;;;6.08;67.99;99751.66;461674;1189;144486;-71
2021/10/23 09:04:21;;;;;;;8.80;4.00;;;;;;;6.03;68.18;99771.33;471000;1189;140955;-64
2021/10/23 09:14:31;;;;;;;7.60;3.30;;;;;;;6.07;68.22;99782.63;472121;1190;140594;-64
2021/10/23 09:24:37;;;;;;;7.60;2.90;;;;;;;6.40;67.84;99796.55;462097;1190;140091;-63
2021/10/23 09:34:43;;;;;;;9.10;3.80;;;;;;;6.48;67.38;99809.09;465280;1185;140795;-64
2021/10/23 09:45:03;;;;;;;7.30;3.40;;;;;;;6.81;67.21;99812.69;473184;1189;140787;-64
2021/10/23 09:55:11;;;;;;;11.10;2.70;;;;;;;7.26;66.50;99814.48;477567;1190;144186;-65
2021/10/23 10:05:17;;;;;;;14.80;4.80;;;;;;;7.22;66.16;99828.08;477644;1190;140743;-65
2021/10/23 10:15:23;;;;;;;;;;;;;;;7.54;65.87;99819.45;477870;1190;140944;-61
2021/10/23 10:25:29;;;;;;;8.70;3.70;;;;;;;7.55;65.18;99832.63;471672;1191;137309;-61
2021/10/23 10:35:59;;;;;;;11.00;3.50;;;;;;;7.31;65.32;99846.09;459938;1188;140975;-61
2021/10/23 10:46:05;;;;;;;7.80;3.60;;;;;;;7.63;65.03;99844.61;468117;1190;141667;-61
2021/10/23 10:56:14;;;;;;;10.10;3.70;;;;;;;8.23;64.42;99850.75;470837;1190;140646;-62
2021/10/23 11:06:44;;;;;;;8.10;3.60;;;;;;;8.72;63.55;99853.95;473982;1190;141601;-61
2021/10/23 11:16:50;;;;;;;8.40;3.10;;;;;;;9.25;62.79;99865.63;467712;1190;140911;-61
2021/10/23 11:26:58;;;;;;;8.80;3.40;;;;;;;9.23;61.99;99871.52;473201;1190;141103;-61
2021/10/23 11:37:04;;;;;;;8.10;3.10;;;;;;;8.91;61.69;99880.86;477850;1190;142850;-61
2021/10/23 11:47:14;;;;;;;7.60;3.00;;;;;;;8.56;61.95;99887.17;468323;1190;143981;-61
2021/10/23 11:58:05;;;;;;;6.40;1.90;;;;;;;8.67;61.60;99894.69;477028;1190;141466;-63
2021/10/23 12:08:33;;;;;;;5.80;2.40;;;;;;;8.33;61.88;99909.26;456449;1189;10001542;-64
2021/10/23 12:18:41;;;;;;;6.10;2.20;;;;;;;8.21;62.15;99905.47;470338;1190;141803;-68
2021/10/23 12:29:01;;;;;;;8.70;2.70;;;;;;;8.42;61.52;99908.80;468786;1190;140559;-66
2021/10/23 12:39:24;;;;;;;4.70;2.40;;;;;;;8.60;61.09;99907.55;475243;1190;140987;-63
2021/10/23 12:49:29;;;;;;;5.50;2.70;;;;;;;9.10;60.17;99922.31;466907;1190;140959;-64
2021/10/23 12:59:36;;;;;;;7.20;3.10;;;;;;;9.24;59.71;99932.42;461564;1190;141442;-61
2021/10/23 13:09:42;;;;;;;7.40;2.30;;;;;;;8.87;59.22;99944.08;461595;1190;140494;-60
2021/10/23 13:19:48;;;;;;;7.00;2.50;;;;;;;8.65;59.78;99946.10;464451;1190;139455;-62
2021/10/23 13:29:55;;;;;;;8.80;3.50;;;;;;;8.55;59.94;99949.04;460563;1189;140636;-60
2021/10/23 13:40:01;;;;;;;7.50;3.40;;;;;;;8.45;60.22;99955.06;464164;1190;140017;-60
2021/10/23 13:50:08;;;;;;;6.40;2.80;;;;;;;8.44;60.27;99961.40;463753;1190;140589;-64
2021/10/23 14:00:16;;;;;;;4.90;2.20;;;;;;;8.23;60.53;99975.11;462461;1190;140212;-58
2021/10/23 14:10:22;;;;;;;9.90;3.00;;;;;;;8.28;60.53;99988.83;469684;1190;141790;-62
2021/10/23 14:20:29;;;;;;;5.50;2.20;;;;;;;8.21;60.63;99987.63;463126;1190;140896;-67
2021/10/23 14:30:35;;;;;;;6.60;3.60;;;;;;;8.19;60.76;99999.56;473717;1190;140592;-65
2021/10/23 14:40:41;;;;;;;7.00;2.60;;;;;;;8.12;60.90;100011.41;478043;1190;144353;-63
2021/10/23 14:50:46;;;;;;;8.80;2.50;;;;;;;7.80;61.11;100039.17;468122;1190;141348;-61
2021/10/23 15:00:52;;;;;;;6.90;2.40;;;;;;;7.57;61.49;100051.02;465866;1190;141599;-62
2021/10/23 15:10:58;;;;;;;5.50;2.80;;;;;;;7.34;62.29;100061.75;466987;1190;140969;-61
2021/10/23 15:21:04;;;;;;;13.30;4.10;;;;;;;7.18;62.97;100081.40;464988;1190;140664;-59
2021/10/23 15:31:10;;;;;;;7.80;2.60;;;;;;;6.87;63.22;100098.69;460794;1190;141311;-60
2021/10/23 15:41:40;;;;;;;9.80;4.00;;;;;;;6.42;63.92;100115.73;465468;1189;144902;-62
2021/10/23 15:51:47;;;;;;;8.40;3.40;;;;;;;6.11;64.89;100142.42;477824;1190;140940;-64
2021/10/23 16:01:54;;;;;;;7.90;3.40;;;;;;;6.16;65.32;100153.07;469892;1189;145018;-64
2021/10/23 16:12:00;;;;;;;9.60;3.60;;;;;;;6.12;65.59;100163.10;476426;1190;141245;-66
2021/10/23 16:22:06;;;;;;;8.50;3.70;;;;;;;6.26;65.64;100186.74;463271;1190;140415;-64
2021/10/23 16:32:12;;;;;;;6.90;4.30;;;;;;;6.36;65.98;100207.10;467317;1189;141728;-62
2021/10/23 16:42:18;;;;;;;9.50;3.40;;;;;;;6.37;66.80;100233.67;462014;1190;141328;-61
2021/10/23 16:52:24;;;;;;;5.90;3.30;;;;;;;6.23;68.11;100264.59;471157;1189;141317;-64
2021/10/23 17:02:30;;;;;;;5.00;2.50;;;;;;;5.93;69.69;100273.40;470357;1190;141060;-60
2021/10/23 17:12:36;;;;;;;9.80;3.40;;;;;;;5.74;70.51;100292.27;473015;1190;144903;-64
2021/10/23 17:22:43;;;;;;;10.50;3.00;;;;;;;5.68;71.05;100305.14;461601;1190;141521;-62
2021/10/23 17:32:49;;;;;;;8.80;3.00;;;;;;;5.44;71.53;100319.96;461244;1190;145537;-61
2021/10/23 17:42:55;;;;;;;13.50;4.00;;;;;;;5.16;71.79;100342.66;468903;1185;140795;-63
2021/10/23 17:53:01;;;;;;;20.20;8.10;;;;;;;4.79;72.39;100360.02;463906;1190;141025;-65
2021/10/23 18:03:07;;;;;;;9.60;4.30;;;;;;;4.42;72.99;100371.77;463652;1187;141815;-65
2021/10/23 18:13:16;;;;;;;12.70;3.90;;;;;;;4.24;73.60;100378.10;464535;1190;141426;-64
2021/10/23 18:23:23;;;;;;;8.00;3.30;;;;;;;4.29;74.32;100394.10;476192;1190;195740;-62
2021/10/23 18:33:29;;;;;;;7.40;2.80;;;;;;;4.33;74.07;100411.52;477765;1189;141063;-67
2021/10/23 18:43:36;;;;;;;5.90;2.40;;;;;;;4.44;74.26;100424.41;472991;1189;141755;-69
2021/10/23 18:53:43;;;;;;;2.80;2.00;;;;;;;4.53;73.84;100442.39;476919;1189;141552;-69
2021/10/23 19:03:49;;;;;;;7.10;2.60;;;;;;;4.50;73.84;100449.05;472107;1190;195257;-64
2021/10/23 19:13:56;;;;;;;4.20;2.30;;;;;;;4.47;73.77;100455.38;475368;1190;141018;-66
2021/10/23 19:24:02;;;;;;;7.80;2.10;;;;;;;4.43;74.05;100471.92;471482;1190;141066;-64
2021/10/23 19:34:08;;;;;;;4.70;2.10;;;;;;;4.37;74.16;100487.33;468781;1189;141740;-66
2021/10/23 19:44:14;;;;;;;3.70;2.40;;;;;;;4.26;74.13;100496.10;461588;1190;140787;-66
2021/10/23 19:54:20;;;;;;;5.30;2.30;;;;;;;4.14;74.53;100508.14;466908;1189;142966;-65
2021/10/23 20:04:26;;;;;;;5.10;3.10;;;;;;;3.97;74.60;100517.88;477808;1189;141220;-66
2021/10/23 20:14:33;;;;;;;9.50;3.80;;;;;;;3.78;74.89;100526.40;468511;1189;141024;-64
2021/10/23 20:24:39;;;;;;;10.70;4.40;;;;;;;3.76;75.10;100533.89;462751;1190;181141;-65
2021/10/23 20:34:46;;;;;;;8.10;4.20;;;;;;;3.63;75.35;100548.52;470041;1190;140891;-66
2021/10/23 20:44:52;;;;;;;6.20;4.40;;;;;;;3.60;75.29;100561.41;477025;1189;141361;-67
2021/10/23 20:54:59;;;;;;;15.90;4.80;;;;;;;3.46;75.09;100575.35;477732;1190;141961;-67
2021/10/23 21:05:07;;;;;;;8.80;6.00;;;;;;;3.46;75.66;100595.95;476816;1189;142538;-68
2021/10/23 21:15:13;;;;;;;11.50;7.00;;;;;;;3.60;75.92;100611.10;467495;1190;141641;-69
2021/10/23 21:25:19;;;;;;;10.80;5.80;;;;;;;3.48;75.97;100619.63;473343;1190;143024;-68
2021/10/23 21:35:25;;;;;;;11.30;6.10;;;;;;;3.28;75.99;100639.88;476931;1190;142258;-68
2021/10/23 21:45:30;;;;;;;9.60;5.40;;;;;;;3.13;76.39;100647.56;466636;1190;142368;-66
2021/10/23 21:55:37;;;;;;;15.00;9.70;;;;;;;2.94;76.67;100650.63;465523;1190;142346;-63
2021/10/23 22:05:43;;;;;;;12.20;7.70;;;;;;;2.66;76.68;100650.86;477063;1189;142403;-64
2021/10/23 22:15:49;;;;;;;11.70;8.10;;;;;;;2.49;76.96;100655.42;465676;1189;144590;-64
2021/10/23 22:25:55;;;;;;;11.00;6.30;;;;;;;2.37;77.21;100662.14;471937;1189;140752;-63
2021/10/23 22:36:01;;;;;;;16.10;6.90;;;;;;;2.58;77.74;100684.00;461556;1176;141038;-63
2021/10/23 22:46:08;;;;;;;17.60;7.80;;;;;;;2.64;77.74;100692.73;463680;1190;141766;-65
2021/10/23 22:56:15;;;;;;;11.70;8.60;;;;;;;2.58;77.82;100700.77;463786;1174;146426;-63
2021/10/23 23:06:21;;;;;;;12.70;9.20;;;;;;;2.61;77.61;100703.33;461167;1190;141515;-62
2021/10/23 23:16:26;;;;;;;12.20;7.50;;;;;;;2.31;77.55;100703.33;461505;1190;145201;-65
2021/10/23 23:26:32;;;;;;;14.90;8.10;;;;;;;2.06;77.78;100720.73;461314;1190;141259;-63
2021/10/23 23:36:39;;;;;;;15.70;8.70;;;;;;;2.03;78.25;100728.88;460882;1190;145542;-64
2021/10/23 23:46:44;;;;;;;19.90;9.30;;;;;;;1.89;77.94;100742.14;464329;1190;141991;-63
2021/10/23 23:56:50;;;;;;;13.90;8.60;;;;;;;1.74;77.92;100756.95;461579;1190;145595;-65
